Time;durP1;ratioP1;P1;durP2;ratioP2;P2;SDS_P1;SDS_P2;PMS_P1;PMS_P2;Temp;Humidity;BMP_temperature;BMP_pressure;BME280_temperature;BME280_humidity;BME280_pressure;Samples;Min_cycle;Max_cycle;Signal;HPM_P1;HPM_P2
2021/05/24 00:00:23;;;;;;;2.67;0.32;;;13.90;61.70;;;;;;2354517;53;21012;-69
2021/05/24 00:02:49;;;;;;;2.47;0.57;;;13.90;61.70;;;;;;2382270;52;20927;-70
2021/05/24 00:05:17;;;;;;;1.95;0.50;;;13.90;61.70;;;;;;2355019;53;20988;-69
2021/05/24 00:07:44;;;;;;;1.40;0.40;;;13.80;61.70;;;;;;2376781;56;21069;-71
2021/05/24 00:10:13;;;;;;;1.17;0.40;;;13.80;61.80;;;;;;2375728;56;21542;-69
2021/05/24 00:12:46;;;;;;;1.27;0.40;;;13.80;61.80;;;;;;2373607;52;21128;-71
2021/05/24 00:15:49;;;;;;;3.05;0.57;;;13.80;61.80;;;;;;2378096;52;20957;-69
2021/05/24 00:18:16;;;;;;;1.87;0.60;;;13.80;61.10;;;;;;2377871;53;20990;-69
2021/05/24 00:20:45;;;;;;;2.65;0.68;;;13.80;61.80;;;;;;2627480;52;20921;-71
2021/05/24 00:23:11;;;;;;;1.67;0.60;;;13.80;61.70;;;;;;2372199;53;20940;-70
2021/05/24 00:25:38;;;;;;;2.22;0.70;;;13.70;61.70;;;;;;2381911;53;21379;-70
2021/05/24 00:28:06;;;;;;;2.65;0.80;;;13.70;61.70;;;;;;2362299;53;21233;-71
2021/05/24 00:30:33;;;;;;;1.90;0.70;;;13.60;61.80;;;;;;2385342;52;20976;-70
2021/05/24 00:33:02;;;;;;;3.58;1.08;;;13.60;61.90;;;;;;2376613;53;20957;-69
2021/05/24 00:35:29;;;;;;;2.33;0.75;;;13.60;62.00;;;;;;2378673;52;20965;-71
2021/05/24 00:37:56;;;;;;;2.10;0.73;;;13.50;61.90;;;;;;2374207;53;20909;-70
2021/05/24 00:40:22;;;;;;;1.92;0.70;;;13.50;62.00;;;;;;2375012;53;20910;-70
2021/05/24 00:42:48;;;;;;;1.48;0.68;;;13.50;62.20;;;;;;2378127;52;21017;-69
2021/05/24 00:45:15;;;;;;;2.58;0.85;;;13.40;62.10;;;;;;2378713;53;20946;-69
2021/05/24 00:47:42;;;;;;;2.37;0.70;;;13.40;62.10;;;;;;2606075;52;20926;-69
2021/05/24 00:50:09;;;;;;;1.52;0.80;;;13.40;62.20;;;;;;2374878;53;20997;-70
2021/05/24 00:52:35;;;;;;;2.08;0.60;;;13.30;62.20;;;;;;2377193;53;20941;-69
2021/05/24 00:55:03;;;;;;;1.58;0.70;;;13.30;62.20;;;;;;2628153;52;20946;-71
2021/05/24 00:57:30;;;;;;;1.85;0.70;;;13.20;62.20;;;;;;2378297;53;20973;-69
2021/05/24 00:59:56;;;;;;;1.98;0.70;;;13.20;62.20;;;;;;2380220;52;21457;-69
2021/05/24 01:02:23;;;;;;;3.22;0.85;;;13.10;62.10;;;;;;2375877;52;20945;-69
2021/05/24 01:04:49;;;;;;;1.85;0.70;;;13.10;62.10;;;;;;2378091;52;21412;-68
2021/05/24 01:07:16;;;;;;;1.52;0.70;;;13.00;62.20;;;;;;2374226;53;20969;-70
2021/05/24 01:09:43;;;;;;;2.60;0.77;;;13.00;62.30;;;;;;2628564;52;21383;-69
2021/05/24 01:12:10;;;;;;;1.30;0.65;;;13.00;62.40;;;;;;2374470;53;20952;-70
2021/05/24 01:14:36;;;;;;;2.53;0.90;;;12.90;62.40;;;;;;2576886;52;20966;-69
2021/05/24 01:17:03;;;;;;;2.60;0.70;;;12.80;62.40;;;;;;2378196;52;20953;-69
2021/05/24 01:19:30;;;;;;;1.48;0.60;;;12.80;62.40;;;;;;2374095;53;20987;-70
2021/05/24 01:21:56;;;;;;;1.40;0.60;;;12.80;62.50;;;;;;2556860;52;20934;-70
2021/05/24 01:24:23;;;;;;;1.58;0.68;;;12.70;62.60;;;;;;2381342;53;21462;-68
2021/05/24 01:26:49;;;;;;;2.20;0.70;;;12.60;62.50;;;;;;2362338;53;20905;-69
2021/05/24 01:29:16;;;;;;;2.95;0.98;;;12.60;62.60;;;;;;2375193;52;20934;-70
2021/05/24 01:31:42;;;;;;;1.92;0.73;;;12.60;62.70;;;;;;2359486;53;20965;-70
2021/05/24 01:34:10;;;;;;;5.18;0.88;;;12.50;62.70;;;;;;2378119;53;21093;-68
2021/05/24 01:36:36;;;;;;;1.70;0.80;;;12.50;62.80;;;;;;2627587;52;20977;-69
2021/05/24 01:39:03;;;;;;;1.98;0.77;;;12.40;62.70;;;;;;2378639;53;20997;-69
2021/05/24 01:41:30;;;;;;;1.60;0.75;;;12.40;62.80;;;;;;2357315;53;21006;-69
2021/05/24 01:43:57;;;;;;;2.08;0.60;;;12.30;62.70;;;;;;2626824;52;20917;-69
2021/05/24 01:46:24;;;;;;;2.50;0.65;;;12.30;62.70;;;;;;2378657;52;20925;-68
2021/05/24 01:48:50;;;;;;;1.90;0.82;;;12.30;62.80;;;;;;2621306;52;20952;-69
2021/05/24 01:51:16;;;;;;;1.95;0.77;;;12.20;62.80;;;;;;2367021;53;20996;-69
2021/05/24 01:53:42;;;;;;;1.60;0.73;;;12.20;62.80;;;;;;2368913;52;20964;-69
2021/05/24 01:56:09;;;;;;;1.85;0.82;;;12.10;62.80;;;;;;2374566;52;20957;-68
2021/05/24 01:58:35;;;;;;;2.85;1.25;;;12.10;63.00;;;;;;2380344;52;21283;-70
2021/05/24 02:01:14;;;;;;;1.67;0.73;;;12.00;63.00;;;;;;2629370;52;20933;-69
2021/05/24 02:03:40;;;;;;;2.80;0.90;;;11.90;62.70;;;;;;2628114;52;20964;-68
2021/05/24 02:06:06;;;;;;;2.72;0.88;;;11.90;63.10;;;;;;2373888;53;20934;-70
2021/05/24 02:08:33;;;;;;;2.33;0.88;;;11.90;63.30;;;;;;2628046;52;21052;-70
2021/05/24 02:11:00;;;;;;;3.70;0.90;;;11.80;63.30;;;;;;2375003;53;21437;-70
2021/05/24 02:13:28;;;;;;;2.78;0.70;;;11.80;63.40;;;;;;2374995;52;20929;-70
2021/05/24 02:15:55;;;;;;;1.42;0.70;;;11.80;63.60;;;;;;2381297;52;20930;-68
2021/05/24 02:18:21;;;;;;;2.00;0.70;;;11.70;63.60;;;;;;2607931;52;20990;-67
2021/05/24 02:20:47;;;;;;;4.37;1.17;;;11.70;63.70;;;;;;2361777;53;20908;-68
2021/05/24 02:23:16;;;;;;;1.50;0.70;;;11.70;63.80;;;;;;2374740;53;20988;-69
2021/05/24 02:25:49;;;;;;;2.25;0.75;;;11.70;63.90;;;;;;2374563;53;20933;-68
2021/05/24 02:28:16;;;;;;;3.47;1.40;;;11.70;64.00;;;;;;2627407;52;21723;-68
2021/05/24 02:30:43;;;;;;;3.60;1.62;;;11.60;64.00;;;;;;2376834;52;20965;-70
2021/05/24 02:33:09;;;;;;;4.18;1.70;;;11.60;64.00;;;;;;2626644;52;20914;-70
2021/05/24 02:35:36;;;;;;;4.18;1.70;;;11.60;64.10;;;;;;2373933;53;20989;-68
2021/05/24 02:38:08;;;;;;;3.12;1.30;;;11.60;64.20;;;;;;2377543;52;20974;-69
2021/05/24 02:40:34;;;;;;;3.80;1.50;;;11.50;64.10;;;;;;2627761;52;20976;-68
2021/05/24 02:43:02;;;;;;;2.20;1.05;;;11.50;64.20;;;;;;2373922;53;20970;-70
2021/05/24 02:45:28;;;;;;;3.75;1.23;;;11.50;64.30;;;;;;2372963;52;21338;-68
2021/05/24 02:47:56;;;;;;;3.42;1.30;;;11.50;64.40;;;;;;2627397;52;20897;-70
2021/05/24 02:50:23;;;;;;;3.87;1.42;;;11.50;64.50;;;;;;2373600;52;21501;-69
2021/05/24 02:52:50;;;;;;;3.90;1.55;;;11.50;64.50;;;;;;2627397;52;21261;-69
2021/05/24 02:55:16;;;;;;;2.22;1.00;;;11.50;64.60;;;;;;2376094;52;21012;-68
2021/05/24 02:57:43;;;;;;;3.03;1.12;;;11.50;64.60;;;;;;2627833;52;21014;-68
2021/05/24 03:00:11;;;;;;;1.92;0.90;;;11.50;64.70;;;;;;2373974;53;20973;-70
2021/05/24 03:02:47;;;;;;;2.12;0.90;;;11.50;64.70;;;;;;2627225;52;20917;-70
2021/05/24 03:05:14;;;;;;;1.90;0.77;;;11.40;64.70;;;;;;2626380;52;20953;-69
2021/05/24 03:07:41;;;;;;;2.00;0.80;;;11.40;64.80;;;;;;2376509;52;21039;-69
2021/05/24 03:10:07;;;;;;;2.22;0.90;;;11.40;64.80;;;;;;2551420;52;21794;-70
2021/05/24 03:12:33;;;;;;;2.90;1.10;;;11.40;64.90;;;;;;2374105;53;20909;-70
2021/05/24 03:15:00;;;;;;;3.45;0.80;;;11.40;64.90;;;;;;2627204;52;21671;-70
2021/05/24 03:17:27;;;;;;;2.92;1.10;;;11.40;65.00;;;;;;2376161;53;21869;-70
2021/05/24 03:19:53;;;;;;;1.65;0.75;;;11.40;65.00;;;;;;2373863;53;20982;-68
2021/05/24 03:22:19;;;;;;;2.60;0.80;;;11.40;65.10;;;;;;2627075;52;20929;-68
2021/05/24 03:24:47;;;;;;;3.40;0.93;;;11.40;65.20;;;;;;2374097;53;20918;-69
2021/05/24 03:27:13;;;;;;;2.95;0.80;;;11.40;65.20;;;;;;2381725;52;20969;-69
2021/05/24 03:29:40;;;;;;;2.12;0.70;;;11.40;65.30;;;;;;2371133;53;20934;-69
2021/05/24 03:32:07;;;;;;;2.70;1.08;;;11.30;65.20;;;;;;2373327;53;21346;-69
2021/05/24 03:34:34;;;;;;;1.98;0.80;;;11.40;65.40;;;;;;2374325;52;20924;-70
2021/05/24 03:37:02;;;;;;;1.80;0.77;;;11.30;65.40;;;;;;2378379;53;20917;-69
2021/05/24 03:39:28;;;;;;;1.70;0.80;;;11.40;65.60;;;;;;2466340;52;21023;-69
2021/05/24 03:41:54;;;;;;;2.35;0.93;;;11.40;65.70;;;;;;2370009;52;20937;-70
2021/05/24 03:44:21;;;;;;;2.05;0.90;;;11.40;65.80;;;;;;2626924;52;21021;-69
2021/05/24 03:46:47;;;;;;;3.75;0.85;;;11.40;65.80;;;;;;2374365;53;21012;-69
2021/05/24 03:49:14;;;;;;;2.20;0.90;;;11.40;65.70;;;;;;2373561;53;20979;-69
2021/05/24 03:51:41;;;;;;;1.85;0.80;;;11.40;65.80;;;;;;2373781;53;20953;-69
2021/05/24 03:54:08;;;;;;;2.60;1.00;;;11.40;65.80;;;;;;2373502;52;20902;-68
2021/05/24 03:56:34;;;;;;;4.28;1.33;;;11.40;65.70;;;;;;2627501;52;20933;-69
2021/05/24 03:59:03;;;;;;;4.75;1.27;;;11.40;65.80;;;;;;2380966;52;20950;-69
2021/05/24 04:01:30;;;;;;;3.40;1.27;;;11.40;65.80;;;;;;2377148;52;20965;-70
2021/05/24 04:03:57;;;;;;;2.97;1.08;;;11.40;65.90;;;;;;2380372;52;20993;-68
2021/05/24 04:06:26;;;;;;;4.53;1.15;;;11.40;65.90;;;;;;2353615;53;21485;-68
2021/05/24 04:08:52;;;;;;;2.30;0.88;;;11.40;65.90;;;;;;2377192;52;21025;-69
2021/05/24 04:11:18;;;;;;;1.98;0.98;;;11.40;65.90;;;;;;2373365;52;20942;-69
2021/05/24 04:13:49;;;;;;;4.90;1.10;;;11.40;65.90;;;;;;2374320;53;21391;-68
2021/05/24 04:16:16;;;;;;;2.70;0.90;;;11.40;66.00;;;;;;2616433;52;20913;-68
2021/05/24 04:18:46;;;;;;;2.60;1.00;;;11.40;66.10;;;;;;2379166;52;20993;-71
2021/05/24 04:21:25;;;;;;;3.40;0.90;;;11.40;66.20;;;;;;2372156;53;21028;-70
2021/05/24 04:23:52;;;;;;;2.45;1.08;;;11.40;66.00;;;;;;2377983;52;21750;-68
2021/05/24 04:26:18;;;;;;;3.60;1.10;;;11.40;66.30;;;;;;2374173;52;21833;-69
2021/05/24 04:28:44;;;;;;;2.05;0.95;;;11.40;66.30;;;;;;2375223;52;21410;-69
2021/05/24 04:31:11;;;;;;;2.08;0.90;;;11.50;66.50;;;;;;2372607;52;20934;-70
2021/05/24 04:33:37;;;;;;;2.50;1.00;;;11.40;66.40;;;;;;2374608;53;20969;-68
2021/05/24 04:36:04;;;;;;;1.98;0.90;;;11.50;67.30;;;;;;2627223;52;20890;-69
2021/05/24 04:38:31;;;;;;;2.33;1.02;;;11.50;66.60;;;;;;2382065;52;21033;-70
2021/05/24 04:40:59;;;;;;;2.25;1.00;;;11.50;66.60;;;;;;2369736;53;21547;-68
2021/05/24 04:43:29;;;;;;;1.65;0.88;;;11.50;66.70;;;;;;2375329;53;20946;-67
2021/05/24 04:45:55;;;;;;;3.42;1.20;;;11.50;66.80;;;;;;2372975;53;21512;-70
2021/05/24 04:48:22;;;;;;;2.10;0.93;;;11.50;66.80;;;;;;2373842;53;20905;-69
2021/05/24 04:50:48;;;;;;;3.00;1.08;;;11.60;66.90;;;;;;2373685;53;21067;-68
2021/05/24 04:53:15;;;;;;;2.65;0.90;;;11.60;66.90;;;;;;2373643;53;20913;-69
2021/05/24 04:55:44;;;;;;;2.08;0.70;;;11.60;67.00;;;;;;2373473;53;20946;-69
2021/05/24 04:58:10;;;;;;;2.45;0.88;;;11.60;67.00;;;;;;2376913;52;20965;-68
2021/05/24 05:00:37;;;;;;;1.85;0.65;;;11.70;67.20;;;;;;2357506;53;20917;-69
2021/05/24 05:03:04;;;;;;;2.10;0.90;;;11.70;67.30;;;;;;2373773;52;21313;-71
2021/05/24 05:05:30;;;;;;;1.65;0.80;;;11.70;67.30;;;;;;2374131;53;20909;-70
2021/05/24 05:07:57;;;;;;;2.40;1.02;;;11.70;67.30;;;;;;2374057;53;21000;-69
2021/05/24 05:10:23;;;;;;;3.25;0.95;;;11.80;67.50;;;;;;2376988;52;20997;-70
2021/05/24 05:12:49;;;;;;;4.32;1.00;;;11.80;67.60;;;;;;2377228;52;20925;-68
2021/05/24 05:15:15;;;;;;;3.33;1.00;;;11.90;67.70;;;;;;2373480;53;20913;-69
2021/05/24 05:17:42;;;;;;;1.62;0.77;;;11.90;67.80;;;;;;2374514;53;20909;-71
2021/05/24 05:20:09;;;;;;;2.17;1.00;;;11.90;67.80;;;;;;2373540;52;21049;-69
2021/05/24 05:22:36;;;;;;;1.92;0.80;;;12.00;68.00;;;;;;2374563;53;20929;-68
2021/05/24 05:25:02;;;;;;;2.42;0.98;;;12.00;68.00;;;;;;2377414;52;20986;-71
2021/05/24 05:27:29;;;;;;;1.92;0.90;;;12.10;68.10;;;;;;2373428;53;21009;-70
2021/05/24 05:29:56;;;;;;;2.35;1.00;;;12.20;68.20;;;;;;2374577;52;20922;-70
2021/05/24 05:32:23;;;;;;;2.08;0.90;;;12.20;68.20;;;;;;2373874;53;20921;-68
2021/05/24 05:34:49;;;;;;;2.55;1.00;;;12.20;68.20;;;;;;2627224;52;21437;-69
2021/05/24 05:37:16;;;;;;;3.67;1.60;;;12.30;68.30;;;;;;2373876;53;20950;-69
2021/05/24 05:39:42;;;;;;;3.15;1.30;;;12.40;68.40;;;;;;2586479;52;21853;-70
2021/05/24 05:42:08;;;;;;;4.43;1.67;;;12.40;68.40;;;;;;2373611;52;20922;-71
2021/05/24 05:44:35;;;;;;;2.97;1.48;;;12.50;68.60;;;;;;2378296;52;21097;-70
2021/05/24 05:47:01;;;;;;;2.75;1.17;;;12.50;68.50;;;;;;2368259;53;20995;-70
2021/05/24 05:49:27;;;;;;;3.05;1.17;;;12.60;68.60;;;;;;2622454;52;20937;-70
2021/05/24 05:51:54;;;;;;;2.70;1.08;;;12.70;68.70;;;;;;2618638;52;21738;-69
2021/05/24 05:54:22;;;;;;;2.85;0.80;;;12.70;68.80;;;;;;2374196;53;20933;-70
2021/05/24 05:56:48;;;;;;;1.90;0.88;;;12.80;69.00;;;;;;2374392;53;20910;-71
2021/05/24 05:59:19;;;;;;;3.40;0.90;;;12.80;69.00;;;;;;2356752;53;21466;-71
2021/05/24 06:01:45;;;;;;;2.25;0.90;;;12.90;69.10;;;;;;2374111;53;20930;-70
2021/05/24 06:04:13;;;;;;;3.97;1.00;;;13.00;69.20;;;;;;2421007;52;20993;-71
2021/05/24 06:06:46;;;;;;;3.17;1.17;;;13.00;69.30;;;;;;2627378;52;20878;-69
2021/05/24 06:09:12;;;;;;;5.05;1.58;;;13.20;69.50;;;;;;2373610;52;20897;-71
2021/05/24 06:11:41;;;;;;;2.85;1.20;;;13.20;69.50;;;;;;2374118;53;21010;-70
2021/05/24 06:14:07;;;;;;;4.45;1.20;;;13.30;69.70;;;;;;2373937;52;20957;-70
2021/05/24 06:16:33;;;;;;;3.20;1.27;;;13.30;69.60;;;;;;2377678;52;20926;-71
2021/05/24 06:19:00;;;;;;;3.50;0.88;;;13.50;69.80;;;;;;2626859;52;20894;-69
2021/05/24 06:21:26;;;;;;;2.53;0.93;;;13.60;69.80;;;;;;2375776;53;20922;-71
2021/05/24 06:23:53;;;;;;;2.10;0.80;;;13.70;69.80;;;;;;2374265;53;20973;-70
2021/05/24 06:26:19;;;;;;;3.65;0.98;;;13.70;69.80;;;;;;2373543;53;20925;-72
2021/05/24 06:28:45;;;;;;;3.22;1.00;;;13.90;69.90;;;;;;2377623;52;20941;-71
2021/05/24 06:31:12;;;;;;;2.60;0.70;;;13.90;69.80;;;;;;2373280;53;20910;-71
2021/05/24 06:33:38;;;;;;;3.30;0.80;;;14.00;70.00;;;;;;2627884;52;20965;-69
2021/05/24 06:36:05;;;;;;;2.05;0.70;;;14.10;70.00;;;;;;2376373;53;21807;-70
2021/05/24 06:38:31;;;;;;;1.83;0.90;;;14.20;70.10;;;;;;2616723;52;20984;-71
2021/05/24 06:40:58;;;;;;;1.92;0.65;;;14.30;70.20;;;;;;2373737;52;20985;-70
2021/05/24 06:43:25;;;;;;;1.20;0.68;;;14.40;70.30;;;;;;2364380;53;21729;-70
2021/05/24 06:45:51;;;;;;;2.03;0.90;;;14.50;70.40;;;;;;2368848;53;21459;-69
2021/05/24 06:48:17;;;;;;;1.95;0.80;;;14.70;70.50;;;;;;2373970;53;21868;-71
2021/05/24 06:50:44;;;;;;;3.03;1.08;;;14.80;70.50;;;;;;2374372;53;21926;-71
2021/05/24 06:53:10;;;;;;;3.25;1.00;;;14.90;70.70;;;;;;2377980;52;21005;-70
2021/05/24 06:55:36;;;;;;;2.75;1.10;;;15.00;70.70;;;;;;2370809;52;21029;-69
2021/05/24 06:58:04;;;;;;;2.15;1.00;;;15.10;70.80;;;;;;2595135;52;20979;-71
2021/05/24 07:00:30;;;;;;;2.28;1.05;;;15.30;71.10;;;;;;2614733;52;20929;-70
2021/05/24 07:02:59;;;;;;;1.62;0.68;;;15.40;71.30;;;;;;2372987;52;20901;-71
2021/05/24 07:05:26;;;;;;;3.55;1.30;;;15.60;71.50;;;;;;2373509;53;20980;-69
2021/05/24 07:07:52;;;;;;;3.00;1.35;;;15.70;71.40;;;;;;2373976;53;21685;-70
2021/05/24 07:10:19;;;;;;;2.37;0.90;;;15.90;71.60;;;;;;2423283;52;20910;-70
2021/05/24 07:12:46;;;;;;;3.40;0.93;;;16.10;71.80;;;;;;2373202;52;20913;-71
2021/05/24 07:15:12;;;;;;;1.77;0.80;;;16.20;71.70;;;;;;2373312;52;20986;-71
2021/05/24 07:17:39;;;;;;;1.60;0.62;;;16.40;71.30;;;;;;2378098;52;21028;-71
2021/05/24 07:20:09;;;;;;;1.62;0.80;;;16.60;71.00;;;;;;2363041;53;20967;-71
2021/05/24 07:22:36;;;;;;;2.05;0.80;;;16.70;70.60;;;;;;2375957;53;21810;-69
2021/05/24 07:25:06;;;;;;;1.23;0.70;;;16.80;70.00;;;;;;2357490;53;20909;-71
2021/05/24 07:27:33;;;;;;;4.97;0.90;;;16.90;69.50;;;;;;2457990;52;20933;-71
2021/05/24 07:30:00;;;;;;;2.37;0.70;;;17.00;69.20;;;;;;2372648;53;20933;-70
2021/05/24 07:32:26;;;;;;;1.98;0.77;;;17.10;69.20;;;;;;2373504;52;20945;-71
2021/05/24 07:34:52;;;;;;;2.00;0.70;;;17.20;69.20;;;;;;2374378;52;20942;-69
2021/05/24 07:37:20;;;;;;;2.80;0.75;;;17.20;69.00;;;;;;2377236;52;20913;-70
2021/05/24 07:39:46;;;;;;;2.17;0.80;;;17.20;68.90;;;;;;2372919;53;21364;-71
2021/05/24 07:42:12;;;;;;;1.95;0.88;;;17.30;69.00;;;;;;2373027;52;21398;-70
2021/05/24 07:44:39;;;;;;;2.28;0.80;;;17.40;68.90;;;;;;2373837;53;20906;-71
2021/05/24 07:47:07;;;;;;;2.03;0.90;;;17.40;68.90;;;;;;2373172;52;20917;-71
2021/05/24 07:49:35;;;;;;;2.78;0.75;;;17.50;69.00;;;;;;2374128;52;20984;-72
2021/05/24 07:52:01;;;;;;;2.28;0.73;;;17.50;69.00;;;;;;2373322;53;20913;-71
2021/05/24 07:54:28;;;;;;;2.85;1.25;;;17.60;69.00;;;;;;2373534;53;20949;-71
2021/05/24 07:56:55;;;;;;;2.60;0.90;;;17.70;68.80;;;;;;2373835;52;20905;-74
2021/05/24 07:59:21;;;;;;;2.55;0.90;;;17.70;68.50;;;;;;2380263;52;20945;-73
2021/05/24 08:01:47;;;;;;;2.03;0.88;;;17.80;69.10;;;;;;2375916;53;21033;-73
2021/05/24 08:04:14;;;;;;;1.62;0.60;;;17.80;68.20;;;;;;2372828;53;20997;-72
2021/05/24 08:06:40;;;;;;;2.60;0.95;;;17.80;69.00;;;;;;2373890;52;21808;-73
2021/05/24 08:09:07;;;;;;;2.67;0.82;;;17.90;68.50;;;;;;2625133;52;21436;-73
2021/05/24 08:11:33;;;;;;;1.92;0.80;;;17.90;68.50;;;;;;2355470;53;21622;-73
2021/05/24 08:14:00;;;;;;;2.25;0.93;;;18.00;68.60;;;;;;2374144;52;21017;-75
2021/05/24 08:16:26;;;;;;;2.42;0.80;;;18.00;68.60;;;;;;2374310;52;20946;-73
2021/05/24 08:18:53;;;;;;;2.22;0.90;;;18.10;68.60;;;;;;2374928;52;20981;-73
2021/05/24 08:21:19;;;;;;;1.90;0.68;;;18.10;68.60;;;;;;2623541;52;20969;-73
2021/05/24 08:23:46;;;;;;;2.12;0.82;;;18.20;68.50;;;;;;2360990;53;21479;-72
2021/05/24 08:26:12;;;;;;;1.65;0.65;;;18.30;68.60;;;;;;2361382;53;21683;-73
2021/05/24 08:28:39;;;;;;;1.83;0.77;;;18.30;68.40;;;;;;2371848;53;20941;-73
2021/05/24 08:31:05;;;;;;;2.17;0.88;;;18.50;68.70;;;;;;2370877;53;21805;-73
2021/05/24 08:33:31;;;;;;;2.05;0.62;;;18.50;68.70;;;;;;2375936;52;20938;-73
2021/05/24 08:35:57;;;;;;;2.00;0.60;;;18.50;68.70;;;;;;2377741;52;21398;-73
2021/05/24 08:38:24;;;;;;;3.10;1.05;;;18.60;68.70;;;;;;2371514;53;21829;-73
2021/05/24 08:40:57;;;;;;;2.35;0.90;;;18.70;68.40;;;;;;2375364;52;20918;-74
2021/05/24 08:43:23;;;;;;;2.20;0.70;;;18.80;67.80;;;;;;2370572;53;20996;-75
2021/05/24 08:45:50;;;;;;;1.83;0.80;;;18.90;68.40;;;;;;2375154;52;20978;-73
2021/05/24 08:48:17;;;;;;;2.83;0.95;;;19.00;68.10;;;;;;2371774;53;21310;-73
2021/05/24 08:50:43;;;;;;;2.37;1.00;;;19.00;67.70;;;;;;2371347;53;20909;-74
2021/05/24 08:53:09;;;;;;;2.83;0.95;;;19.10;67.70;;;;;;2370927;53;21005;-74
2021/05/24 08:55:36;;;;;;;1.55;0.62;;;19.20;67.80;;;;;;2625640;52;20953;-73
2021/05/24 08:58:02;;;;;;;1.77;0.75;;;19.30;67.80;;;;;;2371930;53;20949;-74
2021/05/24 09:00:28;;;;;;;1.85;0.75;;;19.40;67.90;;;;;;2374588;52;21347;-75
2021/05/24 09:02:56;;;;;;;2.80;0.80;;;19.60;67.60;;;;;;2376420;53;21025;-74
2021/05/24 09:05:31;;;;;;;2.35;0.70;;;19.70;66.50;;;;;;2372294;53;21434;-72
2021/05/24 09:08:02;;;;;;;2.15;0.80;;;19.80;66.40;;;;;;2586142;52;20989;-74
2021/05/24 09:10:30;;;;;;;1.40;0.60;;;19.90;66.80;;;;;;2353660;53;21064;-74
2021/05/24 09:12:57;;;;;;;2.00;0.68;;;20.00;65.50;;;;;;2376404;52;20930;-73
2021/05/24 09:15:24;;;;;;;4.30;0.70;;;20.10;65.40;;;;;;2376724;52;20962;-75
2021/05/24 09:17:58;;;;;;;1.80;0.70;;;20.20;65.20;;;;;;2372870;53;20894;-74
2021/05/24 09:20:31;;;;;;;2.05;0.60;;;20.30;64.50;;;;;;2377358;52;21384;-73
2021/05/24 09:23:33;;;;;;;3.40;1.00;;;20.40;64.10;;;;;;2536082;52;20921;-74
2021/05/24 09:26:11;;;;;;;1.60;0.68;;;20.40;62.50;;;;;;2374818;53;20925;-74
2021/05/24 09:28:49;;;;;;;2.03;0.70;;;20.50;64.10;;;;;;2627343;52;20952;-75
2021/05/24 09:31:20;;;;;;;2.33;0.70;;;20.60;64.00;;;;;;2626000;52;21560;-74
2021/05/24 09:33:53;;;;;;;2.08;0.60;;;20.70;64.70;;;;;;2374073;52;20903;-74
2021/05/24 09:36:20;;;;;;;1.83;0.50;;;20.80;63.80;;;;;;2376740;52;21324;-74
2021/05/24 09:38:48;;;;;;;2.55;0.85;;;20.80;64.20;;;;;;2377526;52;20990;-74
2021/05/24 09:41:16;;;;;;;2.35;0.70;;;21.00;64.10;;;;;;2363539;53;20992;-75
2021/05/24 09:43:46;;;;;;;1.85;0.77;;;21.00;63.30;;;;;;2373885;52;21001;-74
2021/05/24 09:46:20;;;;;;;2.60;0.80;;;21.10;63.30;;;;;;2625506;52;20974;-74
2021/05/24 09:48:54;;;;;;;2.37;0.88;;;21.20;63.30;;;;;;2351936;53;20944;-73
2021/05/24 09:51:23;;;;;;;1.50;0.60;;;21.30;62.50;;;;;;2376036;52;20972;-75
2021/05/24 09:54:09;;;;;;;2.78;0.80;;;21.40;63.10;;;;;;2370576;52;20921;-74
2021/05/24 09:56:37;;;;;;;2.33;0.68;;;21.40;62.20;;;;;;2469868;52;20938;-74
2021/05/24 09:59:17;;;;;;;2.28;0.77;;;21.50;62.20;;;;;;2625277;52;21046;-73
2021/05/24 10:01:50;;;;;;;1.40;0.55;;;21.60;59.10;;;;;;2621362;52;20906;-74
2021/05/24 10:04:22;;;;;;;1.33;0.50;;;21.60;59.00;;;;;;2371174;53;20929;-75
2021/05/24 10:06:49;;;;;;;1.45;0.50;;;21.60;59.20;;;;;;2376046;52;20966;-75
2021/05/24 10:09:17;;;;;;;2.10;0.70;;;21.70;60.20;;;;;;2370399;53;20937;-74
2021/05/24 10:11:45;;;;;;;1.98;0.55;;;21.70;59.00;;;;;;2372068;52;21229;-74
2021/05/24 10:14:13;;;;;;;1.17;0.40;;;21.80;59.00;;;;;;2419460;52;21120;-74
2021/05/24 10:16:40;;;;;;;1.60;0.60;;;21.80;58.30;;;;;;2374956;52;21305;-74
2021/05/24 10:19:07;;;;;;;1.27;0.52;;;21.90;57.90;;;;;;2595849;52;21291;-74
2021/05/24 10:21:33;;;;;;;1.50;0.43;;;21.90;58.20;;;;;;2372042;52;20953;-73
2021/05/24 10:24:00;;;;;;;1.37;0.40;;;22.00;57.00;;;;;;2378087;52;20942;-74
2021/05/24 10:26:28;;;;;;;1.40;0.50;;;22.00;55.30;;;;;;2371895;53;21040;-75
2021/05/24 10:28:55;;;;;;;1.00;0.35;;;22.00;55.90;;;;;;2623248;52;20921;-74
2021/05/24 10:31:27;;;;;;;0.98;0.32;;;22.00;56.50;;;;;;2374185;52;21069;-74
2021/05/24 10:33:53;;;;;;;;;;;22.00;56.30;;;;;;2545855;52;21069;-74
2021/05/24 10:36:32;;;;;;;2.12;0.50;;;22.10;53.50;;;;;;2512115;52;20266;-76
2021/05/24 10:39:20;;;;;;;1.33;0.40;;;22.10;54.70;;;;;;2549823;52;21013;-76
2021/05/24 10:42:00;;;;;;;1.35;0.40;;;22.20;54.00;;;;;;2373895;52;20942;-74
2021/05/24 10:44:46;;;;;;;0.55;0.20;;;22.20;55.40;;;;;;2417420;52;21349;-76
2021/05/24 10:47:52;;;;;;;1.23;0.50;;;22.30;54.40;;;;;;2624854;52;20909;-75
2021/05/24 10:50:18;;;;;;;1.70;0.50;;;22.40;52.90;;;;;;2433068;52;20950;-74
2021/05/24 10:53:21;;;;;;;1.12;0.40;;;22.50;54.60;;;;;;2350699;53;20949;-74
2021/05/24 10:55:49;;;;;;;0.62;0.30;;;22.60;53.10;;;;;;2370956;52;20969;-74
2021/05/24 10:58:16;;;;;;;1.33;0.43;;;22.70;54.80;;;;;;2349779;53;20946;-76
2021/05/24 11:00:59;;;;;;;1.35;0.37;;;22.70;53.70;;;;;;2374583;52;21033;-75
2021/05/24 11:03:26;;;;;;;1.62;0.40;;;22.80;51.30;;;;;;2456460;52;20919;-76
2021/05/24 11:06:34;;;;;;;0.93;0.28;;;22.80;53.30;;;;;;2370554;52;20922;-76
2021/05/24 11:09:05;;;;;;;2.72;0.57;;;22.90;50.00;;;;;;2370603;52;20977;-75
2021/05/24 11:11:35;;;;;;;0.98;0.40;;;23.00;51.60;;;;;;2370652;52;21463;-76
2021/05/24 11:14:06;;;;;;;2.97;0.50;;;23.00;52.40;;;;;;2370161;52;20961;-75
2021/05/24 11:16:33;;;;;;;1.67;0.40;;;23.10;52.10;;;;;;2432677;52;20949;-75
2021/05/24 11:19:33;;;;;;;0.95;0.32;;;23.10;52.40;;;;;;2370259;52;20921;-74
2021/05/24 11:22:22;;;;;;;1.40;0.40;;;23.20;46.80;;;;;;2370165;52;20957;-75
2021/05/24 11:25:49;;;;;;;1.50;0.52;;;23.20;49.20;;;;;;2623682;52;21503;-74
2021/05/24 11:28:16;;;;;;;1.77;0.50;;;23.30;50.00;;;;;;2622880;52;21451;-75
2021/05/24 11:30:43;;;;;;;1.70;0.50;;;23.40;48.70;;;;;;2623515;52;20961;-75
2021/05/24 11:33:47;;;;;;;1.30;0.40;;;23.40;48.30;;;;;;2522854;52;21663;-75
2021/05/24 11:36:15;;;;;;;0.82;0.30;;;23.50;46.40;;;;;;2373684;52;21763;-75
2021/05/24 11:39:07;;;;;;;0.93;0.40;;;23.50;49.20;;;;;;2453449;52;20913;-75
2021/05/24 11:41:59;;;;;;;1.47;0.40;;;23.50;48.10;;;;;;2374216;52;21462;-75
2021/05/24 11:44:45;;;;;;;1.33;0.37;;;23.50;48.90;;;;;;2370626;52;21161;-75
2021/05/24 11:47:21;;;;;;;0.57;0.30;;;23.60;50.10;;;;;;2370629;52;20902;-75
2021/05/24 11:50:09;;;;;;;1.37;0.45;;;23.60;49.40;;;;;;2594400;52;21406;-75
2021/05/24 11:52:36;;;;;;;1.08;0.40;;;23.60;49.50;;;;;;2374162;52;21585;-75
2021/05/24 11:55:06;;;;;;;1.37;0.35;;;23.70;50.30;;;;;;2527071;52;21546;-74
2021/05/24 11:57:33;;;;;;;3.30;0.30;;;23.70;49.00;;;;;;2370495;53;21481;-74
2021/05/24 11:59:59;;;;;;;1.87;0.40;;;23.60;49.50;;;;;;2624591;52;20940;-75
2021/05/24 12:02:25;;;;;;;1.60;0.30;;;23.60;48.90;;;;;;2369322;53;20964;-76
2021/05/24 12:04:52;;;;;;;1.65;0.50;;;23.60;46.60;;;;;;2450683;52;21394;-74
2021/05/24 12:07:20;;;;;;;1.05;0.47;;;23.60;45.80;;;;;;2370948;52;21343;-74
2021/05/24 12:09:56;;;;;;;1.27;0.50;;;23.60;46.20;;;;;;2566162;52;21477;-74
2021/05/24 12:12:24;;;;;;;2.28;0.45;;;23.50;45.30;;;;;;2370465;52;20970;-76
2021/05/24 12:14:54;;;;;;;1.10;0.30;;;23.50;45.70;;;;;;2605227;52;20918;-74
2021/05/24 12:17:25;;;;;;;2.65;0.35;;;23.40;45.90;;;;;;2370890;53;21268;-72
2021/05/24 12:19:52;;;;;;;2.15;0.70;;;23.40;46.20;;;;;;2623663;52;21033;-73
2021/05/24 12:22:20;;;;;;;1.80;0.52;;;23.40;44.10;;;;;;2370566;53;20925;-73
2021/05/24 12:24:48;;;;;;;1.25;0.40;;;23.40;44.10;;;;;;2371109;53;20914;-73
2021/05/24 12:27:15;;;;;;;2.05;0.70;;;23.30;45.50;;;;;;2370411;53;20977;-74
2021/05/24 12:30:44;;;;;;;1.42;0.50;;;23.30;44.60;;;;;;2370821;53;21031;-73
2021/05/24 12:33:11;;;;;;;1.12;0.40;;;23.30;44.70;;;;;;2372850;53;21540;-73
2021/05/24 12:35:44;;;;;;;1.73;0.50;;;23.20;44.70;;;;;;2369370;53;20992;-73
2021/05/24 12:38:33;;;;;;;1.27;0.32;;;23.30;46.10;;;;;;2378665;52;21466;-74
2021/05/24 12:41:02;;;;;;;1.52;0.50;;;23.20;46.40;;;;;;2364046;53;21660;-74
2021/05/24 12:43:28;;;;;;;1.08;0.37;;;23.20;46.20;;;;;;2623804;52;21285;-75
2021/05/24 12:45:55;;;;;;;0.93;0.30;;;23.30;47.40;;;;;;2378579;53;21013;-75
2021/05/24 12:48:27;;;;;;;1.90;0.47;;;23.30;48.30;;;;;;2352721;53;20929;-76
2021/05/24 12:50:55;;;;;;;1.80;0.50;;;23.40;48.00;;;;;;2623176;52;21780;-75
2021/05/24 12:53:22;;;;;;;1.48;0.43;;;23.50;47.40;;;;;;2427844;52;21687;-74
2021/05/24 12:55:50;;;;;;;1.48;0.43;;;23.60;47.40;;;;;;2623076;52;21030;-75
2021/05/24 12:58:22;;;;;;;1.12;0.40;;;23.60;46.80;;;;;;2369998;53;21818;-74